Hubbardston, Michigan
Current Conditions -  °F | °C
As of 9:14 PM on Saturday 25 Oct 2014 (Local Time) from KY70 Reporting Station
Clear Clear  
Wind Chill: 55°   Ceiling: Unl
Heat Index: 55°   Visibility: 10mi
Dew Point: 33°   Wind: 10mph
Humidity: 44%   Direction: 290°WNW
Pressure: 29.83"   Gusts: NA
Location:  43.09°N, 84.84°W
Report Text: KY70 260114Z AUTO 29009KT 10SM CLR 13/01 A2983 RMK AO2 T01260006
Loading
Personal Weather Stations






























Interactive Weather Map
Tropical Storm Tracking
New forecast layout! Learn more

10-Day Weather Forecast

Advertisements
Track Severe Weather on mobile